Time;durP1;ratioP1;P1;durP2;ratioP2;P2;SDS_P1;SDS_P2;PMS_P1;PMS_P2;Temp;Humidity;BMP_temperature;BMP_pressure;BME280_temperature;BME280_humidity;BME280_pressure;Samples;Min_cycle;Max_cycle;Signal;HPM_P1;HPM_P2
2023/11/25 00:01:13;;;;;;;25.68;17.52;;;;;;;1.46;89.58;97832.80;1745142;81;26564;-57
2023/11/25 00:03:42;;;;;;;32.50;18.07;;;;;;;1.48;89.70;97838.07;1697803;84;25443;-58
2023/11/25 00:06:08;;;;;;;17.50;9.20;;;;;;;1.52;89.66;97838.79;1697817;84;27706;-60
2023/11/25 00:08:36;;;;;;;12.18;7.75;;;;;;;1.52;89.50;97834.23;1697597;84;25795;-60
2023/11/25 00:11:03;;;;;;;14.07;7.45;;;;;;;1.53;89.44;97833.12;1697677;84;25656;-60
2023/11/25 00:13:30;;;;;;;12.18;7.55;;;;;;;1.50;89.36;97829.77;1696094;84;25856;-61
2023/11/25 00:15:57;;;;;;;17.27;8.15;;;;;;;1.55;89.43;97828.82;1696099;84;25722;-59
2023/11/25 00:18:23;;;;;;;12.30;6.92;;;;;;;1.56;89.37;97831.73;1696942;84;27659;-59
2023/11/25 00:20:55;;;;;;;16.45;7.53;;;;;;;1.55;89.23;97832.82;1671052;84;25592;-59
2023/11/25 00:23:28;;;;;;;10.32;6.42;;;;;;;1.55;89.18;97839.48;1697695;84;25634;-59
2023/11/25 00:25:54;;;;;;;12.80;7.00;;;;;;;1.53;89.12;97840.34;1697783;84;25963;-56
2023/11/25 00:28:21;;;;;;;8.93;6.58;;;;;;;1.51;89.22;97838.54;1697899;84;25534;-58
2023/11/25 00:30:47;;;;;;;12.28;7.30;;;;;;;1.53;89.26;97844.34;1697886;84;27324;-58
2023/11/25 00:33:14;;;;;;;14.58;7.12;;;;;;;1.53;89.32;97843.01;1697800;84;25708;-59
2023/11/25 00:35:41;;;;;;;13.10;6.72;;;;;;;1.54;89.35;97833.38;1693163;84;25548;-56
2023/11/25 00:38:13;;;;;;;8.80;6.75;;;;;;;1.55;89.29;97838.95;1689917;81;25422;-53
2023/11/25 00:40:40;;;;;;;13.80;7.35;;;;;;;1.55;89.30;97842.95;1681553;85;25507;-59
2023/11/25 00:43:06;;;;;;;12.55;6.20;;;;;;;1.55;89.31;97855.47;1709627;83;27336;-60
2023/11/25 00:45:33;;;;;;;13.35;6.85;;;;;;;1.56;89.35;97853.83;1708890;84;25674;-58
2023/11/25 00:48:00;;;;;;;15.50;7.50;;;;;;;1.56;89.32;97856.49;1708932;84;25423;-60
2023/11/25 00:50:26;;;;;;;12.93;7.35;;;;;;;1.56;89.38;97852.50;1708895;84;25536;-60
2023/11/25 00:52:54;;;;;;;18.20;7.62;;;;;;;1.57;89.35;97856.74;1708960;84;25568;-60
2023/11/25 00:55:20;;;;;;;11.18;6.40;;;;;;;1.58;89.38;97852.19;1708937;84;27359;-59
2023/11/25 00:57:47;;;;;;;10.78;7.87;;;;;;;1.59;89.31;97856.44;1708822;84;25634;-59
2023/11/25 01:00:16;;;;;;;10.63;6.58;;;;;;;1.59;89.35;97852.44;1708938;84;25455;-60
2023/11/25 01:02:44;;;;;;;10.25;6.28;;;;;;;1.59;89.28;97859.10;1708991;84;25599;-61
2023/11/25 01:05:10;;;;;;;16.12;7.17;;;;;;;1.58;89.35;97854.86;1708937;84;25585;-59
2023/11/25 01:07:37;;;;;;;17.90;7.12;;;;;;;1.57;89.45;97851.97;1708898;84;27343;-58
2023/11/25 01:10:06;;;;;;;14.25;6.75;;;;;;;1.58;89.62;97856.19;1708854;84;25637;-60
2023/11/25 01:12:34;;;;;;;13.85;7.40;;;;;;;1.57;89.59;97854.63;1709095;84;25577;-60
2023/11/25 01:15:03;;;;;;;12.88;6.95;;;;;;;1.57;89.73;97855.97;1708905;84;26174;-60
2023/11/25 01:17:30;;;;;;;10.98;6.67;;;;;;;1.56;89.62;97853.05;1708579;84;25324;-58
2023/11/25 01:19:58;;;;;;;12.28;6.75;;;;;;;1.56;89.55;97851.72;1708624;84;28348;-57
2023/11/25 01:22:26;;;;;;;9.60;5.97;;;;;;;1.56;89.63;97854.38;1708805;84;25681;-60
2023/11/25 01:24:53;;;;;;;12.58;7.12;;;;;;;1.54;89.33;97853.91;1708911;84;25668;-60
2023/11/25 01:27:20;;;;;;;10.10;6.67;;;;;;;1.53;89.34;97852.33;1708863;84;26188;-60
2023/11/25 01:29:48;;;;;;;10.88;7.47;;;;;;;1.51;89.20;97849.97;1708942;84;25471;-59
2023/11/25 01:32:14;;;;;;;10.63;7.12;;;;;;;1.50;89.12;97851.08;1708934;84;27405;-59
2023/11/25 01:34:42;;;;;;;11.35;6.67;;;;;;;1.51;89.18;97856.63;1708822;84;25403;-58
2023/11/25 01:37:11;;;;;;;10.23;6.70;;;;;;;1.49;89.23;97847.61;1710089;83;25462;-58
2023/11/25 01:39:38;;;;;;;10.40;6.50;;;;;;;1.49;89.34;97852.94;1712617;83;25914;-58
2023/11/25 01:42:05;;;;;;;10.85;6.08;;;;;;;1.49;89.32;97842.28;1712491;83;25693;-60
2023/11/25 01:44:33;;;;;;;6.67;4.78;;;;;;;1.48;89.26;97843.40;1712723;83;28101;-59
2023/11/25 01:47:00;;;;;;;11.50;6.15;;;;;;;1.48;89.28;97844.73;1712535;83;25625;-59
2023/11/25 01:49:27;;;;;;;8.25;5.50;;;;;;;1.49;89.33;97843.62;1712641;83;25583;-58
2023/11/25 01:51:55;;;;;;;7.30;4.92;;;;;;;1.51;89.18;97841.20;1712615;83;26312;-58
2023/11/25 01:54:43;;;;;;;8.75;5.05;;;;;;;1.53;89.14;97841.67;1712659;83;25489;-59
2023/11/25 01:57:10;;;;;;;12.50;4.78;;;;;;;1.51;89.18;97847.31;1699731;84;27917;-59
2023/11/25 01:59:37;;;;;;;8.55;5.10;;;;;;;1.51;89.22;97850.53;1699979;84;25720;-58
2023/11/25 02:02:06;;;;;;;9.55;5.10;;;;;;;1.51;89.18;97845.97;1699433;84;25541;-58
2023/11/25 02:04:33;;;;;;;10.63;5.45;;;;;;;1.52;89.16;97852.89;1700102;84;25618;-59
2023/11/25 02:07:00;;;;;;;9.08;5.30;;;;;;;1.53;89.23;97855.00;1700134;84;25752;-57
2023/11/25 02:09:27;;;;;;;12.10;5.42;;;;;;;1.54;89.18;97856.58;1700149;84;27367;-60
2023/11/25 02:12:01;;;;;;;12.60;5.90;;;;;;;1.54;89.21;97860.02;1700045;84;25624;-59
2023/11/25 02:14:28;;;;;;;9.80;6.12;;;;;;;1.53;89.33;97861.10;1699963;84;25652;-59
2023/11/25 02:16:56;;;;;;;7.47;5.65;;;;;;;1.53;89.25;97857.66;1720823;83;25674;-60
2023/11/25 02:19:26;;;;;;;10.10;5.30;;;;;;;1.53;89.39;97858.99;1721107;83;25601;-58
2023/11/25 02:21:52;;;;;;;;;;;;;;;1.52;89.32;97862.22;1724246;83;28049;-58
2023/11/25 02:24:20;;;;;;;7.08;4.87;;;;;;;1.53;89.32;97874.98;1721872;83;25832;-59
2023/11/25 02:26:47;;;;;;;9.88;5.25;;;;;;;1.48;89.09;97870.04;1721892;83;25569;-58
2023/11/25 02:29:15;;;;;;;11.10;4.33;;;;;;;1.46;89.01;97876.23;1712565;83;25623;-58
2023/11/25 02:31:42;;;;;;;8.15;5.17;;;;;;;1.44;88.98;97873.06;1712597;83;25643;-58
2023/11/25 02:34:09;;;;;;;7.35;5.20;;;;;;;1.44;89.09;97873.62;1712637;83;28344;-59
2023/11/25 02:36:38;;;;;;;8.33;5.17;;;;;;;1.43;89.00;97873.37;1712475;83;25672;-58
2023/11/25 02:39:05;;;;;;;11.97;5.28;;;;;;;1.41;89.03;97875.00;1712603;83;25462;-58
2023/11/25 02:41:31;;;;;;;9.83;5.35;;;;;;;1.42;89.10;97874.48;1712539;83;25971;-59
2023/11/25 02:43:58;;;;;;;8.15;4.85;;;;;;;1.43;89.11;97877.36;1712585;83;25651;-58
2023/11/25 02:46:25;;;;;;;7.33;5.37;;;;;;;1.41;89.05;97879.55;1712707;83;27720;-59
2023/11/25 02:48:52;;;;;;;9.65;5.65;;;;;;;1.41;89.11;97886.98;1712505;83;25645;-56
2023/11/25 02:51:19;;;;;;;8.63;5.28;;;;;;;1.40;89.20;97897.42;1712571;83;25652;-55
2023/11/25 02:53:49;;;;;;;7.83;5.83;;;;;;;1.40;89.33;97891.31;1712527;83;25566;-57
2023/11/25 02:56:16;;;;;;;10.88;6.05;;;;;;;1.38;89.32;97896.95;1718279;83;25580;-55
2023/11/25 02:58:44;;;;;;;10.65;6.83;;;;;;;1.36;89.27;97897.00;1722588;83;27330;-57
2023/11/25 03:01:13;;;;;;;11.45;6.80;;;;;;;1.33;89.29;97897.08;1722478;83;25620;-57
2023/11/25 03:03:47;;;;;;;9.70;6.12;;;;;;;1.32;89.46;97898.16;1722690;83;34714;-57
2023/11/25 03:06:09;;;;;;;8.50;6.42;;;;;;;1.31;89.56;97893.92;1723366;81;25601;-59
2023/11/25 03:08:36;;;;;;;9.83;6.60;;;;;;;1.31;89.54;97903.23;1722586;83;25467;-58
2023/11/25 03:11:11;;;;;;;8.50;6.00;;;;;;;1.29;89.47;97907.56;1722565;83;27395;-58
2023/11/25 03:13:31;;;;;;;7.45;5.70;;;;;;;1.30;89.36;97899.80;1723600;82;25552;-57
2023/11/25 03:15:58;;;;;;;8.53;5.95;;;;;;;1.28;89.42;97904.66;1722573;83;25604;-57
2023/11/25 03:18:26;;;;;;;9.28;6.40;;;;;;;1.28;89.40;97907.88;1722575;83;25627;-55
2023/11/25 03:20:53;;;;;;;10.08;6.25;;;;;;;1.30;89.52;97911.01;1722582;83;25627;-58
2023/11/25 03:23:20;;;;;;;9.15;6.03;;;;;;;1.30;89.37;97910.45;1722533;83;27331;-59
2023/11/25 03:25:47;;;;;;;10.50;6.28;;;;;;;1.28;89.25;97915.86;1722476;83;25617;-58
2023/11/25 03:28:15;;;;;;;10.10;6.75;;;;;;;1.27;89.39;97925.70;1722546;83;25479;-59
2023/11/25 03:30:42;;;;;;;9.48;6.40;;;;;;;1.27;89.35;97928.92;1722620;83;25603;-59
2023/11/25 03:33:09;;;;;;;9.33;6.22;;;;;;;1.25;89.25;97928.45;1722612;83;25552;-59
2023/11/25 03:35:36;;;;;;;10.25;6.40;;;;;;;1.22;89.26;97928.50;1740688;82;27738;-59
2023/11/25 03:38:02;;;;;;;7.30;5.35;;;;;;;1.20;89.16;97925.91;1722535;83;25568;-58
2023/11/25 03:40:29;;;;;;;9.33;5.85;;;;;;;1.18;89.06;97932.88;1722570;83;25641;-58
2023/11/25 03:42:58;;;;;;;8.40;5.00;;;;;;;1.16;89.11;97927.07;1722534;83;26179;-59
2023/11/25 03:45:24;;;;;;;9.25;5.95;;;;;;;1.16;89.09;97931.06;1722643;83;25454;-58
2023/11/25 03:47:52;;;;;;;8.20;4.83;;;;;;;1.14;88.93;97939.10;1722554;83;27332;-58
2023/11/25 03:50:20;;;;;;;6.20;4.90;;;;;;;1.14;88.99;97940.44;1722544;83;26173;-59
2023/11/25 03:52:47;;;;;;;6.20;4.75;;;;;;;1.13;88.95;97935.66;1722537;83;25549;-59
2023/11/25 03:55:15;;;;;;;8.23;4.95;;;;;;;1.11;88.81;97937.30;1722320;83;26278;-59
2023/11/25 03:57:43;;;;;;;9.35;5.10;;;;;;;1.12;88.88;97942.06;1719204;83;25569;-59
2023/11/25 04:00:15;;;;;;;5.83;4.80;;;;;;;1.11;88.92;97945.84;1717250;83;27527;-59
2023/11/25 04:02:45;;;;;;;7.50;5.37;;;;;;;1.12;88.93;97938.08;1716989;83;25602;-57
2023/11/25 04:05:13;;;;;;;;;;;;;;;1.11;88.83;97943.95;1721800;83;25207;-58
2023/11/25 04:07:41;;;;;;;6.95;5.55;;;;;;;1.09;88.75;97951.46;1719285;83;26307;-57
2023/11/25 04:10:14;;;;;;;9.08;5.47;;;;;;;1.07;88.74;97948.32;1719061;83;25638;-58
2023/11/25 04:12:45;;;;;;;7.47;5.53;;;;;;;1.05;88.73;97950.48;1717106;83;28032;-57
2023/11/25 04:15:16;;;;;;;5.70;5.10;;;;;;;1.04;88.72;97954.77;1716854;83;25604;-58
2023/11/25 04:17:43;;;;;;;9.75;6.25;;;;;;;1.04;88.86;97961.43;1719185;83;25393;-58
2023/11/25 04:20:14;;;;;;;7.00;5.80;;;;;;;1.03;88.90;97961.20;1718976;83;26589;-58
2023/11/25 04:22:44;;;;;;;7.40;5.65;;;;;;;1.01;88.97;97950.08;1719098;83;25566;-56
2023/11/25 04:25:13;;;;;;;11.28;6.22;;;;;;;1.01;89.12;97953.52;1718941;83;28042;-58
2023/11/25 04:27:43;;;;;;;6.30;5.62;;;;;;;0.99;89.15;97953.56;1719195;83;25709;-59
2023/11/25 04:30:12;;;;;;;8.35;6.40;;;;;;;1.00;89.30;97955.92;1719208;83;25613;-59
2023/11/25 04:32:41;;;;;;;10.43;5.72;;;;;;;0.99;89.38;97961.02;1719229;83;26376;-60
2023/11/25 04:35:09;;;;;;;;;;;;;;;0.99;89.57;97957.55;1721726;83;25556;-58
2023/11/25 04:37:37;;;;;;;8.35;6.92;;;;;;;0.95;89.76;97968.02;1719139;83;27326;-59
2023/11/25 04:40:07;;;;;;;10.65;6.75;;;;;;;0.95;90.02;97965.91;1717239;83;25632;-54
2023/11/25 04:42:34;;;;;;;10.90;7.25;;;;;;;0.92;90.09;97972.09;1719084;83;25768;-58
2023/11/25 04:45:02;;;;;;;10.80;7.17;;;;;;;0.93;90.22;97971.54;1718798;83;26362;-56
2023/11/25 04:47:29;;;;;;;10.00;7.67;;;;;;;0.91;90.29;97970.51;1719064;83;25490;-58
2023/11/25 04:49:57;;;;;;;9.33;7.40;;;;;;;0.91;90.43;97969.73;1717087;83;28067;-58
2023/11/25 04:52:24;;;;;;;12.73;7.42;;;;;;;0.90;90.46;97980.93;1716758;83;25604;-56
2023/11/25 04:54:51;;;;;;;10.88;7.42;;;;;;;0.89;90.37;97976.68;1719138;83;25475;-58
2023/11/25 04:57:19;;;;;;;10.60;6.97;;;;;;;0.91;90.47;97987.03;1724263;82;25620;-59
2023/11/25 04:59:46;;;;;;;10.00;7.12;;;;;;;0.90;90.40;97984.92;1725420;83;25611;-59
2023/11/25 05:02:13;;;;;;;9.63;6.95;;;;;;;0.87;90.34;97978.86;1725389;83;27931;-58
2023/11/25 05:04:40;;;;;;;10.68;6.83;;;;;;;0.86;90.13;97986.59;1725259;83;25662;-59
2023/11/25 05:07:07;;;;;;;9.40;6.25;;;;;;;0.82;90.19;97978.98;1725336;83;25607;-58
2023/11/25 05:09:37;;;;;;;8.35;6.58;;;;;;;0.81;90.26;97990.70;1725341;83;25972;-58
2023/11/25 05:12:03;;;;;;;6.33;5.72;;;;;;;0.81;90.42;98000.57;1725880;81;25598;-59
2023/11/25 05:14:30;;;;;;;8.90;6.37;;;;;;;0.79;90.51;98004.08;1725354;83;28077;-56
2023/11/25 05:16:57;;;;;;;7.12;6.33;;;;;;;0.78;90.54;98008.59;1725269;83;25622;-58
2023/11/25 05:19:24;;;;;;;7.35;6.10;;;;;;;0.80;90.72;98012.29;1725335;83;25778;-59
2023/11/25 05:21:52;;;;;;;8.00;6.12;;;;;;;0.82;90.84;98021.56;1725365;83;25772;-58
2023/11/25 05:24:20;;;;;;;9.18;6.95;;;;;;;0.84;90.82;98025.26;1725342;83;25440;-60
2023/11/25 05:26:47;;;;;;;11.90;6.90;;;;;;;0.84;90.85;98024.70;1725316;83;27703;-59
2023/11/25 05:29:14;;;;;;;6.72;5.78;;;;;;;0.84;90.85;98025.26;1725267;83;26032;-58
2023/11/25 05:31:41;;;;;;;9.60;6.75;;;;;;;0.81;90.90;98017.87;1725311;83;25586;-58
2023/11/25 05:34:08;;;;;;;8.35;6.15;;;;;;;0.81;90.97;98023.97;1725308;83;25600;-59
2023/11/25 05:36:34;;;;;;;7.35;6.12;;;;;;;0.81;91.11;98023.97;1702665;83;25570;-58
2023/11/25 05:39:02;;;;;;;9.18;6.83;;;;;;;0.83;91.27;98023.67;1725351;83;26760;-58
2023/11/25 05:41:29;;;;;;;7.20;6.25;;;;;;;0.81;91.26;98019.20;1725206;83;26040;-59
2023/11/25 05:43:57;;;;;;;8.10;5.95;;;;;;;0.79;91.44;98024.81;1725337;83;25557;-58
2023/11/25 05:46:25;;;;;;;8.48;6.97;;;;;;;0.77;91.55;98035.50;1725290;83;26205;-59
2023/11/25 05:48:54;;;;;;;7.15;6.15;;;;;;;0.77;91.68;98046.15;1725315;83;25442;-58
2023/11/25 05:51:22;;;;;;;8.60;6.45;;;;;;;0.78;91.90;98046.41;1725407;83;27395;-57
2023/11/25 05:53:49;;;;;;;10.63;6.58;;;;;;;0.76;91.99;98051.25;1725350;83;25642;-58
2023/11/25 05:56:18;;;;;;;7.62;6.42;;;;;;;0.73;92.10;98055.28;1723752;82;25507;-59
2023/11/25 05:58:45;;;;;;;8.23;6.62;;;;;;;0.73;92.17;98062.73;1716880;83;25623;-59
2023/11/25 06:01:12;;;;;;;7.65;6.83;;;;;;;0.74;92.34;98065.63;1716872;83;25591;-59
2023/11/25 06:03:42;;;;;;;9.25;6.83;;;;;;;0.76;92.44;98067.22;1716901;83;27343;-58
2023/11/25 06:06:09;;;;;;;7.42;6.55;;;;;;;0.76;92.53;98067.99;1719010;83;25425;-59
2023/11/25 06:08:37;;;;;;;7.87;7.00;;;;;;;0.79;92.68;98065.29;1716794;83;25432;-59
2023/11/25 06:11:04;;;;;;;7.40;6.62;;;;;;;0.79;92.79;98066.63;1719073;83;25631;-60
2023/11/25 06:13:32;;;;;;;10.28;8.13;;;;;;;0.79;92.75;98073.27;1719150;83;25669;-59
2023/11/25 06:15:58;;;;;;;7.92;6.53;;;;;;;0.79;92.80;98076.72;1716790;83;28376;-59
2023/11/25 06:18:25;;;;;;;8.33;6.55;;;;;;;0.79;92.85;98084.70;1716765;83;25643;-59
2023/11/25 06:20:52;;;;;;;7.85;6.47;;;;;;;0.81;92.91;98085.19;1716874;83;25423;-58
2023/11/25 06:23:18;;;;;;;7.33;6.55;;;;;;;0.84;92.97;98087.80;1716744;83;25623;-60
2023/11/25 06:25:45;;;;;;;8.08;6.53;;;;;;;0.85;92.97;98090.70;1716846;83;25475;-60
2023/11/25 06:28:14;;;;;;;8.10;6.75;;;;;;;0.86;92.84;98088.29;1716818;83;27923;-60
2023/11/25 06:30:43;;;;;;;7.50;6.33;;;;;;;0.87;92.86;98096.50;1719136;83;25636;-59
2023/11/25 06:33:10;;;;;;;5.65;4.67;;;;;;;0.89;92.96;98107.66;1719368;83;25473;-59
2023/11/25 06:35:38;;;;;;;10.10;6.62;;;;;;;0.92;93.03;98108.41;1719213;83;26672;-59
2023/11/25 06:38:05;;;;;;;9.23;7.03;;;;;;;0.94;93.10;98115.54;1716923;83;25605;-57
2023/11/25 06:40:34;;;;;;;8.43;6.78;;;;;;;0.94;93.10;98111.55;1719224;83;28389;-57
2023/11/25 06:43:00;;;;;;;9.80;7.50;;;;;;;0.96;93.03;98116.02;1716802;83;25726;-58
2023/11/25 06:45:27;;;;;;;11.12;7.60;;;;;;;0.97;93.02;98117.61;1716943;83;25554;-59
2023/11/25 06:47:54;;;;;;;12.23;7.78;;;;;;;0.97;93.00;98117.61;1717232;83;25595;-58
2023/11/25 06:50:22;;;;;;;11.88;8.48;;;;;;;0.98;92.99;98120.50;1720154;83;25188;-58
2023/11/25 06:52:50;;;;;;;13.53;7.97;;;;;;;0.97;93.02;98121.61;1717693;83;27970;-58
2023/11/25 06:55:19;;;;;;;8.60;6.50;;;;;;;0.99;93.02;98126.60;1717537;83;25390;-58
2023/11/25 06:57:49;;;;;;;;;;;;;;;0.99;92.67;98134.07;1721729;83;25607;-59
2023/11/25 07:00:17;;;;;;;;;;;;;;;0.95;92.47;98134.40;1721757;83;25674;-58
2023/11/25 07:02:44;;;;;;;8.00;5.67;;;;;;;0.87;92.26;98141.75;1719247;83;25624;-58
2023/11/25 07:05:13;;;;;;;9.45;6.50;;;;;;;0.84;92.48;98147.69;1746284;81;27228;-59
2023/11/25 07:07:41;;;;;;;10.45;6.62;;;;;;;0.82;92.75;98145.84;1719244;83;25599;-59
2023/11/25 07:10:40;;;;;;;9.15;6.83;;;;;;;0.80;92.94;98154.16;1718862;83;25635;-58
2023/11/25 07:13:07;;;;;;;8.78;6.15;;;;;;;0.78;93.05;98158.18;1718934;83;25962;-60
2023/11/25 07:15:35;;;;;;;10.53;7.35;;;;;;;0.79;93.19;98159.22;1719238;83;25641;-60
2023/11/25 07:18:06;;;;;;;13.15;8.38;;;;;;;0.79;93.35;98158.44;1719192;83;27336;-59
2023/11/25 07:20:33;;;;;;;11.93;8.00;;;;;;;0.78;93.38;98158.18;1719240;81;25706;-59
2023/11/25 07:23:01;;;;;;;10.15;7.12;;;;;;;0.79;93.56;98169.86;1719147;83;25517;-60
2023/11/25 07:25:29;;;;;;;10.40;7.80;;;;;;;0.79;93.77;98166.42;1719152;82;25981;-59
2023/11/25 07:27:56;;;;;;;13.72;8.80;;;;;;;0.80;93.70;98172.78;1719201;83;25620;-58
2023/11/25 07:30:22;;;;;;;11.73;8.33;;;;;;;0.82;93.77;98166.62;1719233;82;27335;-59
2023/11/25 07:32:49;;;;;;;14.40;8.78;;;;;;;0.86;93.91;98175.58;1719217;83;25608;-59
2023/11/25 07:35:16;;;;;;;13.93;9.93;;;;;;;0.88;93.88;98172.62;1719210;83;25553;-58
2023/11/25 07:37:42;;;;;;;16.30;10.63;;;;;;;0.87;93.63;98178.49;1719159;82;25968;-59
2023/11/25 07:40:14;;;;;;;12.30;9.05;;;;;;;0.89;93.71;98184.86;1719214;83;25652;-58
2023/11/25 07:42:45;;;;;;;15.53;11.33;;;;;;;0.87;93.54;98177.16;1719223;83;27748;-57
2023/11/25 07:45:12;;;;;;;15.45;9.40;;;;;;;0.88;93.57;98181.94;1719137;82;25395;-61
2023/11/25 07:47:39;;;;;;;13.28;8.93;;;;;;;0.86;93.33;98187.55;1719176;82;25483;-58
2023/11/25 07:50:08;;;;;;;12.05;8.93;;;;;;;0.84;93.23;98187.62;1719116;83;25953;-59
2023/11/25 07:52:36;;;;;;;16.00;8.63;;;;;;;0.84;93.42;98195.60;1719340;83;25544;-60
2023/11/25 07:55:04;;;;;;;18.00;9.40;;;;;;;0.84;93.40;98198.27;1719182;83;28137;-59
2023/11/25 07:57:32;;;;;;;12.20;8.20;;;;;;;0.83;93.37;98197.45;1719106;83;25789;-60
2023/11/25 08:00:00;;;;;;;12.03;8.43;;;;;;;0.84;93.29;98202.26;1719164;83;25403;-59
2023/11/25 08:02:27;;;;;;;11.60;8.15;;;;;;;0.85;93.51;98203.30;1719125;83;26611;-59
2023/11/25 08:04:55;;;;;;;11.93;8.40;;;;;;;0.87;93.65;98209.10;1719179;83;25478;-59
2023/11/25 08:07:23;;;;;;;10.98;8.68;;;;;;;0.91;93.81;98215.95;1719181;82;27672;-59
2023/11/25 08:09:52;;;;;;;12.23;7.92;;;;;;;0.94;93.82;98219.36;1719231;83;25432;-55
2023/11/25 08:12:19;;;;;;;11.20;7.90;;;;;;;0.97;93.88;98218.77;1719423;83;25556;-57
2023/11/25 08:14:47;;;;;;;10.78;7.60;;;;;;;1.02;93.90;98220.53;1719205;82;25683;-58
2023/11/25 08:17:14;;;;;;;12.75;7.50;;;;;;;1.05;94.08;98226.05;1719209;82;25581;-58
2023/11/25 08:19:41;;;;;;;10.50;6.83;;;;;;;1.11;94.25;98223.54;1719175;83;27263;-59
2023/11/25 08:22:09;;;;;;;9.43;6.62;;;;;;;1.16;94.09;98222.66;1719080;83;25479;-57
2023/11/25 08:24:36;;;;;;;12.98;6.53;;;;;;;1.19;93.76;98225.26;1723107;81;25564;-59
2023/11/25 08:27:04;;;;;;;7.95;5.87;;;;;;;1.24;93.37;98218.49;1719153;82;26838;-61
2023/11/25 08:29:31;;;;;;;8.60;5.25;;;;;;;1.22;92.70;98226.00;1746285;81;25652;-59
2023/11/25 08:31:57;;;;;;;7.72;5.12;;;;;;;1.22;92.33;98228.66;1719165;83;27334;-58
2023/11/25 08:34:24;;;;;;;8.63;5.60;;;;;;;1.22;92.32;98239.31;1719060;83;25752;-58
2023/11/25 08:36:55;;;;;;;6.03;4.85;;;;;;;1.22;92.19;98240.64;1719150;83;25576;-60
2023/11/25 08:39:27;;;;;;;6.00;4.65;;;;;;;1.18;91.66;98247.11;1746181;81;25640;-57
2023/11/25 08:41:58;;;;;;;7.17;4.37;;;;;;;1.17;91.46;98243.41;1719239;83;25612;-57
2023/11/25 08:44:23;;;;;;;4.83;4.33;;;;;;;1.13;91.29;98253.09;1719306;82;27285;-59
2023/11/25 08:46:51;;;;;;;5.80;4.53;;;;;;;1.13;91.02;98251.77;1719098;82;25698;-58
2023/11/25 08:49:21;;;;;;;6.78;4.80;;;;;;;1.11;91.18;98248.84;1719141;83;25631;-57
2023/11/25 08:51:50;;;;;;;6.22;4.28;;;;;;;1.17;91.49;98256.73;1719236;82;34757;-60
2023/11/25 08:54:18;;;;;;;5.62;3.75;;;;;;;1.18;91.39;98251.11;1719163;83;25468;-59
2023/11/25 08:56:48;;;;;;;4.45;3.72;;;;;;;1.17;91.25;98250.84;1719132;82;27390;-60
2023/11/25 08:59:20;;;;;;;3.95;3.55;;;;;;;1.24;90.91;98255.78;1728851;82;25518;-57
2023/11/25 09:01:51;;;;;;;3.98;3.35;;;;;;;1.26;90.86;98259.73;1726938;83;25466;-57
2023/11/25 09:04:22;;;;;;;5.42;3.70;;;;;;;1.25;90.69;98254.16;1706540;84;25923;-59
2023/11/25 09:06:51;;;;;;;4.58;3.25;;;;;;;1.28;90.59;98258.11;1726966;83;25395;-60
2023/11/25 09:09:20;;;;;;;4.20;3.70;;;;;;;1.26;90.55;98258.41;1706727;84;27609;-61
2023/11/25 09:11:48;;;;;;;3.98;3.58;;;;;;;1.29;90.56;98263.15;1726945;83;25697;-60
2023/11/25 09:14:16;;;;;;;5.50;3.12;;;;;;;1.28;90.44;98255.45;1706723;84;25460;-60
2023/11/25 09:16:44;;;;;;;3.47;3.00;;;;;;;1.33;90.23;98265.20;1726910;83;25994;-60
2023/11/25 09:19:20;;;;;;;8.88;3.22;;;;;;;1.30;90.14;98263.37;1726906;83;25544;-60
2023/11/25 09:21:46;;;;;;;6.20;3.50;;;;;;;1.35;90.46;98268.38;1706581;84;28441;-59
2023/11/25 09:24:13;;;;;;;4.17;3.47;;;;;;;1.38;90.38;98269.89;1726759;83;25469;-61
2023/11/25 09:26:40;;;;;;;4.40;3.40;;;;;;;1.39;90.06;98271.45;1726896;83;25397;-61
2023/11/25 09:29:08;;;;;;;3.55;3.15;;;;;;;1.36;89.88;98268.60;1726825;83;26141;-62
2023/11/25 09:31:35;;;;;;;6.17;3.20;;;;;;;1.36;89.87;98278.70;1706629;84;25668;-60
2023/11/25 09:34:03;;;;;;;5.87;3.72;;;;;;;1.32;89.79;98283.06;1726854;83;27356;-63
2023/11/25 09:36:31;;;;;;;6.97;3.92;;;;;;;1.28;90.07;98281.53;1706512;84;26034;-63
2023/11/25 09:38:59;;;;;;;5.12;3.85;;;;;;;1.29;90.38;98287.13;1726871;83;25391;-60
2023/11/25 09:41:30;;;;;;;9.13;6.20;;;;;;;1.29;90.35;98287.64;1706544;84;25671;-62
2023/11/25 09:43:57;;;;;;;5.70;5.03;;;;;;;1.26;90.23;98287.70;1724884;81;25610;-61
2023/11/25 09:46:26;;;;;;;7.25;5.17;;;;;;;1.22;90.29;98296.02;1724647;83;28044;-62
2023/11/25 09:48:53;;;;;;;9.85;5.33;;;;;;;1.17;90.05;98301.45;1724448;83;25673;-62
2023/11/25 09:51:27;;;;;;;8.05;5.33;;;;;;;1.10;90.38;98306.38;1706614;84;25636;-60
2023/11/25 09:53:57;;;;;;;6.92;5.33;;;;;;;1.02;90.40;98303.88;1726861;83;25633;-62
2023/11/25 09:56:23;;;;;;;8.65;5.03;;;;;;;1.01;90.84;98300.17;1706528;84;25458;-62
2023/11/25 09:58:50;;;;;;;7.33;5.25;;;;;;;0.99;91.00;98300.98;1718814;82;27668;-62
2023/11/25 10:01:18;;;;;;;6.95;4.85;;;;;;;0.97;91.14;98307.16;1745642;81;25721;-63
2023/11/25 10:03:47;;;;;;;7.33;4.85;;;;;;;0.96;91.51;98308.25;1746342;81;25476;-61
2023/11/25 10:06:14;;;;;;;;;;;;;;;0.96;91.80;98308.25;1719845;83;26125;-60
2023/11/25 10:08:42;;;;;;;7.55;5.60;;;;;;;0.91;91.61;98302.47;1719442;83;25608;-61
2023/11/25 10:11:14;;;;;;;7.87;5.03;;;;;;;0.87;91.81;98296.95;1717631;83;27688;-63
2023/11/25 10:13:43;;;;;;;5.87;5.28;;;;;;;0.85;91.74;98305.77;1719297;82;25850;-63
2023/11/25 10:16:12;;;;;;;6.67;5.12;;;;;;;0.81;91.88;98306.64;1716906;83;25403;-63
2023/11/25 10:18:41;;;;;;;7.12;5.17;;;;;;;0.79;92.01;98303.48;1719145;83;25630;-62
2023/11/25 10:21:10;;;;;;;5.92;5.05;;;;;;;0.76;92.29;98300.86;1716163;83;26109;-64
2023/11/25 10:23:37;;;;;;;6.10;4.67;;;;;;;0.73;92.04;98304.09;1716225;83;27680;-63
2023/11/25 10:26:06;;;;;;;5.47;4.97;;;;;;;0.68;92.19;98298.86;1717667;83;25654;-64
2023/11/25 10:28:35;;;;;;;5.97;4.90;;;;;;;0.62;92.34;98298.72;1716723;82;25507;-65
2023/11/25 10:31:05;;;;;;;5.53;4.92;;;;;;;0.64;92.68;98311.19;1719261;83;26168;-66
2023/11/25 10:33:34;;;;;;;;;;;;;;;0.59;92.78;98306.72;1699600;83;25611;-67
2023/11/25 10:36:03;;;;;;;5.72;4.47;;;;;;;0.59;93.01;98316.59;1719463;83;28091;-67
2023/11/25 10:38:31;;;;;;;7.40;4.87;;;;;;;0.58;93.25;98318.98;1720825;83;25749;-65
2023/11/25 10:41:01;;;;;;;5.83;5.20;;;;;;;0.55;93.49;98315.83;1717318;83;25580;-65
2023/11/25 10:43:31;;;;;;;8.00;5.28;;;;;;;0.51;93.39;98319.36;1750236;81;25638;-66
2023/11/25 10:46:10;;;;;;;8.43;5.60;;;;;;;0.49;93.54;98314.33;1716929;83;25453;-66
2023/11/25 10:48:39;;;;;;;9.88;5.53;;;;;;;0.49;93.79;98319.64;1716961;83;27332;-64
2023/11/25 10:51:10;;;;;;;7.12;5.47;;;;;;;0.51;93.91;98316.70;1719304;83;26059;-64
2023/11/25 10:53:39;;;;;;;6.90;5.47;;;;;;;0.50;93.94;98330.55;1719055;83;25599;-64
2023/11/25 10:56:07;;;;;;;6.12;4.85;;;;;;;0.53;94.14;98327.86;1719033;83;25988;-64
2023/11/25 10:58:36;;;;;;;6.50;5.08;;;;;;;0.47;94.22;98325.02;1720572;83;25438;-64
2023/11/25 11:01:04;;;;;;;9.78;5.90;;;;;;;0.51;94.20;98333.98;1722610;83;28231;-64
2023/11/25 11:03:54;;;;;;;6.75;5.33;;;;;;;0.46;94.44;98334.88;1722459;83;26237;-65
2023/11/25 11:06:26;;;;;;;6.65;5.40;;;;;;;0.42;94.18;98329.87;1722621;83;25629;-65
2023/11/25 11:08:56;;;;;;;8.20;5.70;;;;;;;0.43;94.33;98337.33;1722480;83;26298;-64
2023/11/25 11:11:37;;;;;;;8.18;6.47;;;;;;;0.43;94.56;98330.68;1722690;83;25556;-64
2023/11/25 11:14:11;;;;;;;9.00;6.90;;;;;;;0.45;94.67;98341.81;1722576;83;27339;-64
2023/11/25 11:17:16;;;;;;;10.48;6.90;;;;;;;0.44;94.79;98341.00;1722423;83;25572;-64
2023/11/25 11:19:43;;;;;;;7.65;6.53;;;;;;;0.41;94.66;98336.81;1715896;82;25635;-64
2023/11/25 11:22:13;;;;;;;9.53;7.12;;;;;;;0.40;94.75;98337.91;1722469;83;26556;-64
2023/11/25 11:25:08;;;;;;;10.20;7.85;;;;;;;0.40;94.67;98342.67;1722561;83;25626;-66
2023/11/25 11:27:55;;;;;;;9.43;7.17;;;;;;;0.39;94.79;98338.97;1722571;83;27416;-61
2023/11/25 11:30:38;;;;;;;8.70;6.90;;;;;;;0.35;94.88;98334.22;1723371;81;25490;-49
2023/11/25 11:33:06;;;;;;;11.57;8.40;;;;;;;0.32;94.78;98338.00;1723619;81;25443;-51
2023/11/25 11:35:38;;;;;;;9.85;8.40;;;;;;;0.31;95.09;98347.86;1723205;83;26394;-62
2023/11/25 11:38:27;;;;;;;11.05;7.87;;;;;;;0.29;95.24;98350.02;1723011;83;25686;-59
2023/11/25 11:41:10;;;;;;;9.48;8.00;;;;;;;0.33;95.24;98355.55;1722882;83;28358;-58
2023/11/25 11:43:38;;;;;;;9.68;7.42;;;;;;;0.35;95.31;98355.50;1714199;82;25458;-57
2023/11/25 11:46:06;;;;;;;9.90;7.72;;;;;;;0.35;95.42;98358.71;1722636;83;25475;-59